РПИ Новосибирск

Общая информация

Региональный центр Новосибирск (РегЦ Новосибирск) входит в организационно-территориальную структуру дивизиона VATRUS международной сети VATSIM и является оперативным органом единой системы организации воздушного движения дивизиона VATRUS.

РегЦ Новосибирск осуществляет свою деятельность в воздушном пространстве над территориями 6 субъектов Российской Федерации, общая площадь территории которых составляет около 1 млн кв. км. Зона ответственности РегЦ Новосибирск покрывает Республику Алтай, Алтайский край, Новосибирскую, Кемеровскую, Омскую и Томскую области.

Воздушное пространство зоны ответственности РегЦ Новосибирск граничит с районами ОВД Монголии, Республики Казахстан и Китайской Народной Республики. Авиационные магистрали, проходящие через зону ответственности РегЦ Новосибирск, связывают Западную Европу с Юго-Восточной Азией, Северную Америку с Южной Азией.

Общая протяженность воздушных трасс составляет более 40 тысяч километров, в том числе более 130 международных участков с десятью воздушными коридорами на границе сопредельных государств (Казахстан, Китай, Монголия).

В зоне ответственности РегЦ Новосибирск расположены аэродромы таких городов, как Барнаул, Горно-Алтайск, Кемерово, Новокузнецк, Новосибирск, Омск, Стрежевой, Томск.

Коды ВОРЛ (район применения ICAO EUR-G)

Барнаул (Михайловка) 5250-5253, 5260-5264

Горно-Алтайск 5265-5267

Кемерово 5301-5305

Новокузнецк (Спиченково) 5306-5311

Новосибирск (Толмачёво) 5201-5230, 5270-5275

Новосибирск (Ельцовка) 5316-5317

Омск (Центральный) 5440-5461

Стрежевой 5276-5277

Томск (Богашево) 5254-5257, 5312-5315, 5462-5467

РЕЗЕРВ РЦ ЕС ОрВД 5231-5247

Средства связи ОВД

UNNT_CTR - Новосибирск-Контроль - 127.000

Публичные ресурсы РПИ Новосибирск

ВКонтакте - http://vk.com/unnt_fir

Discord - https://discord.gg/unnt

Контакты администрации РПИ Новосибирск

Fir-unnt@yandex.ru

Лого Новосибирск
Руководство

Mikhail Gogolev

Начальник РегЦ ЕС ОрВД (Новосибирск)

Alexei Gladilin

заместитель начальника РегЦ Новосибирск

Andrey Morozov

заместитель начальника РегЦ Новосибирск

Mark Kalashnikov

начальник пресс-службы
Контакты

Инструкторы РПИ
Aleksey Nevzorov (Instructor)
Alexandr Khodyrev * (Controller)
Andrey Morozov * (Controller)
Dmitriy Kabushev * (Senior Student)
Kirill Ivanov * (Controller)
Mikhail Gogolev (Instructor)
Sergey Arkasov (Instructor)
Входит в состав
Сибирь

Диспетчеры РПИ

Диспетчер Рейтинг Допуски *
Aleksey Nevzorov Instructor UNNT_CTR
Alexei Gladilin Controller UNNT_CTR
Alexey Arkasov Controller UNNT_CTR
Andrey Morozov Controller UNNT_CTR
Artem Smychkov Instructor UNNT_CTR
Artem Tsendrovsky Senior Student UNNT_CTR  *, UNNT_APP, UNOO_APP
Ivan Chokenyuk Controller UNNT_CTR
Ivan Kobka Controller UNNT_CTR
Kirill Ivanov Controller UNNT_CTR
Kirill Shabunin Senior Controller UNNT_CTR
Mikhail Gogolev Instructor UNNT_CTR
Sergey Arkasov Instructor UNNT_CTR
Tigran Areian Controller UNNT_CTR
Timofey Abramchuck Senior Student UNNT_CTR  *, UNEE_APP, UNNT_TWR, UNOO_APP
Alexander Sharonov Student UNNT_GND
Alexander Veretentsev Student 2 UNEE_TWR!!!, UNNT_R_APP*, UNOO_TWR
Alexandr Andreev Student UNNT_GND
Alexandr Belyakov Student 2 UNEE_TWR!!!
Alexandr Nikolaev Student UNNT_TWR*, UNNT_GND
Alexey Rodionov Student 2 UNNT_R_APP*
Anatoly Margach Student UNNT_GND
Andrey Guz Student UNNT_GND
Andrey Mikhaylov Student UNNT_TWR*, UNOO_GND
Arseniy Kucheev Student 2 UNBG_TWR, UNEE_TWR, UNNT_R_APP*, UNNT_TWR, UNOO_TWR, UNWW_TWR
Arseny Epikhin Student 2 UNNT_TWR
Artem Glinchikov Student UNNT_TWR*, UNNT_GND
Artem Ponomarov Student 2 UNNT_GND, UNNT_TWR*
Artemiy Golushcov Student UNNT_GND
Artyom Shinkevich Student UNNT_GND
Ayaz Gadilshin Student UNNT_GND
Bogdan Mavrodiev Student UNNT_GND
Boris Yakunin Senior Student UNNT_APP
Daniil Bulavin Student UNNT_GND
Daniil Gargalyk Student UNNT_GND
Daniil Platonov Student UNNT_TWR*, UNNT_GND
Danil Yazvitskiy Student UNNT_GND
Dmitriy Kabushev Senior Student UNNT_APP, UNOO_TWR, UNTT_TWR
Dmitriy Yanov Student UNNT_GND
Egor Beletsky Student 2 UNNT_TWR
Egor Filippov Student UNNT_TWR*, UNNT_GND
Egor Panov Student UNNT_GND
Egor Rykov Student UNNT_GND
Egor Sarin Student UNNT_GND
Evgeny Listratov Senior Student UNNT_APP, UNOO_APP
Georgi Denisov Student UNNT_GND
Igor Murashkin Student UNNT_GND
Ilia Lobanov Student UNNT_GND
Ilia Vasilev Student UNNT_GND
Ilya Kopylov Student UNNT_TWR*
Kirill Khan Student UNNT_GND
Kirill Shishkin Student UNNT_TWR*, UNNT_GND
Klim Pravdin Student UNNT_TWR*
Konstantin Bednov Student 2 UNNT_TWR, UNNT_R_APP*, UNOO_TWR
Maksim Shemelin Student 2 UNNT_TWR
Maksim Tretyakov Student 2 UNNT_R_APP*, UNNT_TWR
Mark Kalashnikov Student 2 UNNT_APP*, UNOO_TWR, UNTT_TWR
Mark Marisov Student 2 UNNT_APP*, UNNT_TWR
Matvei Korshunov Student UNNT_GND
Matvey Skuratov Student UNNT_GND, UNNT_TWR*
Maxim Ivanishchev Senior Student UNNT_APP
Mikhail Arkasov Student UNNT_GND, UNNT_TWR*
Mikhail Pompushko Senior Student UNBG_TWR, UNNT_APP, UNSS_R_APP, UNWW_APP
Mikhail Shishkin Student UNNT_GND
Mikhail Shorokhov Student UNNT_GND
Misha Mishcenko Student UNNT_GND
Nikita Krendelev Student UNNT_GND
Nikita Razumov Student 2 UNNT_TWR, UNOO_GND
Rinal Shakirov Student UNNT_GND
Roman Askerov Student UNNT_GND
Roman Elsukov Student UNNT_GND
Sergei Stach Student UNNT_GND
Sergey Milyaev Student UNNT_GND
Timofei Degtyar Student 2 UNNT_TWR, UNNT_APP*, UNOO_TWR
Timur Sorov Student 2 UNBB_TWR, UNNT_R_APP*, UNNT_TWR
Vadim Kostromskiy Student UNNT_GND
Valerii Diakov Student 2 UNWW_TWR
vlad vartanov Student UNNT_GND
Yaroslav Akhmanaev Student UNNT_GND
Yaroslav Vasilyev Student 2 UNNT_TWR

Аэропорты РПИ

ICAO Город Название Погода
UNBB Барнаул Барнаул UNBB 221300Z 34006MPS CAVOK 10/M06 Q1019 R24/CLRD66 NOSIG RMK QFE742
UNBG Горно-Алтайск Горно-Алтайск
UNEE Кемерово Кемерово UNEE 221300Z 31005MPS 9999 OVC032 03/M03 Q1018 R23/CLRD60 NOSIG RMK QFE740
UNWW Новокузнецк Новокузнецк UNWW 221300Z 34007MPS 9999 BKN039CB 06/M03 Q1017 R01/09//55 NOSIG RMK QFE736
UNNT Новосибирск Новосибирск UNNT 221300Z 33004MPS CAVOK 08/M03 Q1020 R25/090070 R16/////// NOSIG RMK QFE755/1007
UNOO Омск Омск UNOO 221300Z 31005MPS CAVOK 16/M02 Q1024 R25/CLRD60 NOSIG RMK QFE759
UNSS Стрежевой Стрежевой
UNTT Томск Томск UNTT 221300Z 32002MPS 9999 BKN037 02/M03 Q1018 R21/////// NOSIG RMK QFE748